createdAt,value
2023-11-13T00:01:25.762Z,83.02
2023-11-13T00:03:53.765Z,83.12
2023-11-13T00:06:21.486Z,83.23
2023-11-13T00:08:49.124Z,83.59
2023-11-13T00:11:17.039Z,83.76
2023-11-13T00:13:45.503Z,83.47
2023-11-13T00:16:13.376Z,83.69
2023-11-13T00:18:43.252Z,83.58
2023-11-13T00:21:12.312Z,83.59
2023-11-13T00:23:40.076Z,83.55
2023-11-13T00:26:07.744Z,83.55
2023-11-13T00:28:36.976Z,83.40
2023-11-13T00:31:05.211Z,83.68
2023-11-13T00:33:32.905Z,83.39
2023-11-13T00:36:02.048Z,83.89
2023-11-13T00:38:29.682Z,83.81
2023-11-13T00:40:59.223Z,84.08
2023-11-13T00:43:29.064Z,84.10
2023-11-13T00:45:56.789Z,83.75
2023-11-13T00:48:24.485Z,84.10
2023-11-13T00:50:52.243Z,84.02
2023-11-13T00:53:21.295Z,83.96
2023-11-13T00:55:49.713Z,84.35
2023-11-13T00:58:17.806Z,84.11
2023-11-13T01:00:45.736Z,84.40
2023-11-13T01:03:13.467Z,84.40
2023-11-13T01:05:41.153Z,84.23
2023-11-13T01:08:08.793Z,84.41
2023-11-13T01:10:37.858Z,84.29
2023-11-13T01:13:05.646Z,84.13
2023-11-13T01:15:33.444Z,83.96
2023-11-13T01:18:01.308Z,84.25
2023-11-13T01:20:29.208Z,84.17
2023-11-13T01:22:57.246Z,84.31
2023-11-13T01:25:24.992Z,84.69
2023-11-13T01:27:54.034Z,84.62
2023-11-13T01:30:22.021Z,84.61
2023-11-13T01:32:49.720Z,84.32
2023-11-13T01:35:17.452Z,84.39
2023-11-13T01:37:45.602Z,84.43
2023-11-13T01:40:13.880Z,84.76
2023-11-13T01:42:41.569Z,85.07
2023-11-13T01:45:11.202Z,84.66
2023-11-13T01:47:39.598Z,85.05
2023-11-13T01:50:08.218Z,85.28
2023-11-13T01:52:35.938Z,85.23
2023-11-13T01:55:04.260Z,85.46
2023-11-13T01:57:32.749Z,85.65
2023-11-13T02:00:01.035Z,85.63
2023-11-13T02:02:30.156Z,85.42
2023-11-13T02:04:57.871Z,85.46
2023-11-13T02:07:25.534Z,85.23
2023-11-13T02:09:53.373Z,85.73
2023-11-13T02:12:21.453Z,85.72
2023-11-13T02:14:49.200Z,85.58
2023-11-13T02:17:16.984Z,85.54
2023-11-13T02:19:46.900Z,85.59
2023-11-13T02:22:14.806Z,85.77
2023-11-13T02:24:44.039Z,85.58
2023-11-13T02:27:11.815Z,85.34
2023-11-13T02:29:39.570Z,85.04
2023-11-13T02:32:08.482Z,85.27
2023-11-13T02:34:36.159Z,85.07
2023-11-13T02:37:05.394Z,84.99
2023-11-13T02:39:33.509Z,84.99
2023-11-13T02:42:03.171Z,84.99
2023-11-13T02:44:31.162Z,85.04
2023-11-13T02:46:58.830Z,84.93
2023-11-13T02:49:26.579Z,84.67
2023-11-13T02:51:54.249Z,84.17
2023-11-13T02:54:22.117Z,84.34
2023-11-13T02:56:49.795Z,84.64
2023-11-13T02:59:18.749Z,84.58
2023-11-13T03:01:46.495Z,84.71
2023-11-13T03:04:14.286Z,84.69
2023-11-13T03:06:41.952Z,84.59
2023-11-13T03:09:10.828Z,84.70
2023-11-13T03:11:38.812Z,84.67
2023-11-13T03:14:06.602Z,84.81
2023-11-13T03:16:35.896Z,84.70
2023-11-13T03:19:03.682Z,84.64
2023-11-13T03:21:31.352Z,84.71
2023-11-13T03:23:59.164Z,85.13
2023-11-13T03:26:30.041Z,85.27
2023-11-13T03:28:58.021Z,85.16
2023-11-13T03:31:25.768Z,85.30
2023-11-13T03:33:55.670Z,85.11
2023-11-13T03:36:23.338Z,85.20
2023-11-13T03:38:51.004Z,84.94
2023-11-13T03:41:19.195Z,84.76
2023-11-13T03:43:47.272Z,84.93
2023-11-13T03:46:14.968Z,85.01
2023-11-13T03:48:42.633Z,84.76
2023-11-13T03:51:11.794Z,84.54
2023-11-13T03:53:39.403Z,84.64
2023-11-13T03:56:08.378Z,84.74
2023-11-13T03:58:36.094Z,84.59
2023-11-13T04:01:04.811Z,84.42
2023-11-13T04:03:32.505Z,85.03
2023-11-13T04:06:00.208Z,84.41
2023-11-13T04:08:29.713Z,84.79
2023-11-13T04:10:57.830Z,84.98
2023-11-13T04:13:26.285Z,84.97
2023-11-13T04:15:54.123Z,84.87
2023-11-13T04:18:22.657Z,84.68
2023-11-13T04:20:50.301Z,84.53
2023-11-13T04:23:17.985Z,84.69
2023-11-13T04:25:48.548Z,84.72
2023-11-13T04:28:16.524Z,84.53
2023-11-13T04:30:44.288Z,84.58
2023-11-13T04:33:12.065Z,84.54
2023-11-13T04:35:40.160Z,84.42
2023-11-13T04:38:07.810Z,84.43
2023-11-13T04:40:35.492Z,84.23
2023-11-13T04:43:07.112Z,84.29
2023-11-13T04:45:36.151Z,84.27
2023-11-13T04:48:04.294Z,84.07
2023-11-13T04:50:31.950Z,83.82
2023-11-13T04:52:59.636Z,83.97
2023-11-13T04:55:27.340Z,83.99
2023-11-13T04:57:55.002Z,83.78
2023-11-13T05:00:24.029Z,83.88
2023-11-13T05:02:51.773Z,83.72
2023-11-13T05:05:19.476Z,84.22
2023-11-13T05:07:47.127Z,84.33
2023-11-13T05:10:14.859Z,84.04
2023-11-13T05:12:42.504Z,84.11
2023-11-13T05:15:10.975Z,83.98
2023-11-13T05:17:40.042Z,84.20
2023-11-13T05:20:08.944Z,84.12
2023-11-13T05:22:36.734Z,84.29
2023-11-13T05:25:05.014Z,84.58
2023-11-13T05:27:32.802Z,84.58
2023-11-13T05:30:00.661Z,84.82
2023-11-13T05:32:28.512Z,84.74
2023-11-13T05:34:57.579Z,85.00
2023-11-13T05:37:25.205Z,85.22
2023-11-13T05:39:52.914Z,85.02
2023-11-13T05:42:24.281Z,84.98
2023-11-13T05:44:52.234Z,85.13
2023-11-13T05:47:20.001Z,85.22
2023-11-13T05:49:48.518Z,85.33
2023-11-13T05:52:18.760Z,85.17
2023-11-13T05:54:46.594Z,85.25
2023-11-13T05:57:14.373Z,85.43
2023-11-13T05:59:42.113Z,85.40
2023-11-13T06:02:12.716Z,85.45
2023-11-13T06:04:44.761Z,85.32
2023-11-13T06:07:12.821Z,85.49
2023-11-13T06:09:43.518Z,85.37
2023-11-13T06:12:11.607Z,85.55
2023-11-13T06:14:40.597Z,85.51
2023-11-13T06:17:09.022Z,85.32
2023-11-13T06:19:36.751Z,85.32
2023-11-13T06:22:04.695Z,85.34
2023-11-13T06:24:32.342Z,85.60
2023-11-13T06:27:01.474Z,85.81
2023-11-13T06:29:29.144Z,85.38
2023-11-13T06:31:57.481Z,85.42
2023-11-13T06:34:25.336Z,85.41
2023-11-13T06:36:56.141Z,85.10
2023-11-13T06:39:24.561Z,85.27
2023-11-13T06:41:53.625Z,85.31
2023-11-13T06:44:22.660Z,85.04
2023-11-13T06:46:50.405Z,84.94
2023-11-13T06:49:19.881Z,84.83
2023-11-13T06:51:47.702Z,85.06
2023-11-13T06:54:15.495Z,84.99
2023-11-13T06:56:43.429Z,84.62
2023-11-13T06:59:12.181Z,84.69
2023-11-13T07:01:42.150Z,84.70
2023-11-13T07:04:11.189Z,84.77
2023-11-13T07:06:39.207Z,84.69
2023-11-13T07:09:11.901Z,84.75
2023-11-13T07:11:44.099Z,85.00
2023-11-13T07:14:11.887Z,84.52
2023-11-13T07:16:41.953Z,84.98
2023-11-13T07:19:10.472Z,84.92
2023-11-13T07:21:39.266Z,85.10
2023-11-13T07:24:09.111Z,85.28
2023-11-13T07:26:37.027Z,85.20
2023-11-13T07:29:05.374Z,85.28
2023-11-13T07:31:33.430Z,85.39
2023-11-13T07:34:02.576Z,85.54
2023-11-13T07:36:32.264Z,85.66
2023-11-13T07:39:00.364Z,85.96
2023-11-13T07:41:28.028Z,85.64
2023-11-13T07:43:57.614Z,85.84
2023-11-13T07:46:25.343Z,85.66
2023-11-13T07:48:53.053Z,85.81
2023-11-13T07:51:22.020Z,85.75
2023-11-13T07:53:51.157Z,85.83
2023-11-13T07:56:20.611Z,85.71
2023-11-13T07:58:48.356Z,85.79
2023-11-13T08:01:17.807Z,85.68
2023-11-13T08:03:45.534Z,86.16
2023-11-13T08:06:14.127Z,86.42
2023-11-13T08:08:43.097Z,86.64
2023-11-13T08:11:11.784Z,86.78
2023-11-13T08:13:39.480Z,87.31
2023-11-13T08:16:09.527Z,87.39
2023-11-13T08:18:37.216Z,87.73
2023-11-13T08:21:05.182Z,87.47
2023-11-13T08:23:32.873Z,87.78
2023-11-13T08:26:02.023Z,87.83
2023-11-13T08:28:33.007Z,87.40
2023-11-13T08:31:04.893Z,87.35
2023-11-13T08:33:35.022Z,87.47
2023-11-13T08:36:05.349Z,87.47
2023-11-13T08:38:32.976Z,87.12
2023-11-13T08:41:01.971Z,87.47
2023-11-13T08:43:30.988Z,87.04
2023-11-13T08:46:01.235Z,87.29
2023-11-13T08:48:29.751Z,87.36
2023-11-13T08:51:01.045Z,87.26
2023-11-13T08:53:29.868Z,87.16
2023-11-13T08:55:58.327Z,87.38
2023-11-13T08:58:27.516Z,87.96
2023-11-13T09:00:55.429Z,87.72
2023-11-13T09:03:23.232Z,88.05
2023-11-13T09:05:51.383Z,88.24
2023-11-13T09:08:19.087Z,88.19
2023-11-13T09:10:46.844Z,88.57
2023-11-13T09:13:14.915Z,88.43
2023-11-13T09:15:45.283Z,89.09
2023-11-13T09:18:13.820Z,88.83
2023-11-13T09:20:43.668Z,88.91
2023-11-13T09:23:11.750Z,89.35
2023-11-13T09:25:39.627Z,89.71
2023-11-13T09:28:08.884Z,89.81
2023-11-13T09:30:36.786Z,89.89
2023-11-13T09:33:08.213Z,90.02
2023-11-13T09:35:35.941Z,89.79
2023-11-13T09:38:03.555Z,89.80
2023-11-13T09:40:35.785Z,89.61
2023-11-13T09:43:09.018Z,90.14
2023-11-13T09:45:38.422Z,89.95
2023-11-13T09:48:09.541Z,89.94
2023-11-13T09:50:39.297Z,90.12
2023-11-13T09:53:07.550Z,90.56
2023-11-13T09:55:35.646Z,90.25
2023-11-13T09:58:03.517Z,90.08
2023-11-13T10:00:34.087Z,90.00
2023-11-13T10:03:02.374Z,90.05
2023-11-13T10:05:33.200Z,90.09
2023-11-13T10:08:01.669Z,90.31
2023-11-13T10:10:30.663Z,90.26
2023-11-13T10:13:01.786Z,90.16
2023-11-13T10:15:30.582Z,90.31
2023-11-13T10:18:00.049Z,90.14
2023-11-13T10:20:28.689Z,89.87
2023-11-13T10:23:08.066Z,89.85
2023-11-13T10:25:42.597Z,89.99
2023-11-13T10:28:10.689Z,90.44
2023-11-13T10:30:55.104Z,90.04
2023-11-13T10:33:24.134Z,89.85
2023-11-13T10:35:52.197Z,89.68
2023-11-13T10:38:22.440Z,89.86
2023-11-13T10:40:57.448Z,89.89
2023-11-13T10:43:33.431Z,90.02
2023-11-13T10:46:02.871Z,89.89
2023-11-13T10:48:33.731Z,89.85
2023-11-13T10:51:05.716Z,89.83
2023-11-13T10:53:36.877Z,89.91
2023-11-13T10:56:06.505Z,90.05
2023-11-13T10:58:34.389Z,90.32
2023-11-13T11:01:04.148Z,90.16
2023-11-13T11:03:33.863Z,90.20
2023-11-13T11:06:07.735Z,90.43
2023-11-13T11:08:38.626Z,90.54
2023-11-13T11:11:07.972Z,91.02
2023-11-13T11:13:37.166Z,90.67
2023-11-13T11:16:25.164Z,90.50
2023-11-13T11:18:57.858Z,90.68
2023-11-13T11:21:41.255Z,90.90
2023-11-13T11:24:14.178Z,90.65
2023-11-13T11:26:51.772Z,90.95
2023-11-13T11:29:32.908Z,91.35
2023-11-13T11:32:00.943Z,91.17
2023-11-13T11:34:32.167Z,91.48
2023-11-13T11:37:03.268Z,91.59
2023-11-13T11:39:45.731Z,91.77
2023-11-13T11:42:18.149Z,92.04
2023-11-13T11:45:00.271Z,92.37
2023-11-13T11:47:29.484Z,92.81
2023-11-13T11:49:59.152Z,93.41
2023-11-13T11:52:43.157Z,93.68
2023-11-13T11:55:15.134Z,93.64
2023-11-13T11:57:46.408Z,93.99
2023-11-13T12:00:17.156Z,94.12
2023-11-13T12:02:45.532Z,94.43
2023-11-13T12:05:14.743Z,94.51
2023-11-13T12:07:42.809Z,94.51
2023-11-13T12:10:13.400Z,94.43
2023-11-13T12:12:42.792Z,94.50
2023-11-13T12:15:12.080Z,94.60
2023-11-13T12:17:40.817Z,94.71
2023-11-13T12:20:18.106Z,94.39
2023-11-13T12:22:49.619Z,94.68
2023-11-13T12:25:18.408Z,94.89
2023-11-13T12:27:47.458Z,94.88
2023-11-13T12:30:17.791Z,95.09
2023-11-13T12:32:46.266Z,94.56
2023-11-13T12:35:14.281Z,94.54
2023-11-13T12:37:43.390Z,94.53
2023-11-13T12:40:12.547Z,94.86
2023-11-13T12:42:41.858Z,95.10
2023-11-13T12:45:13.204Z,95.03
2023-11-13T12:47:45.746Z,94.78
2023-11-13T12:50:16.714Z,94.96
2023-11-13T12:52:47.724Z,95.27
2023-11-13T12:55:17.190Z,95.38
2023-11-13T12:57:46.427Z,95.44
2023-11-13T13:00:17.321Z,95.70
2023-11-13T13:02:48.110Z,95.66
2023-11-13T13:05:26.190Z,95.71
2023-11-13T13:07:59.110Z,95.69
2023-11-13T13:10:27.057Z,95.71
2023-11-13T13:12:56.123Z,95.94
2023-11-13T13:15:27.934Z,95.74
2023-11-13T13:17:55.911Z,95.92
2023-11-13T13:20:30.917Z,95.98
2023-11-13T13:22:59.647Z,95.75
2023-11-13T13:25:31.097Z,95.97
2023-11-13T13:28:00.418Z,96.26
2023-11-13T13:30:33.326Z,96.29
2023-11-13T13:33:02.835Z,96.47
2023-11-13T13:35:30.716Z,96.47
2023-11-13T13:37:58.405Z,96.61
2023-11-13T13:40:26.988Z,96.66
2023-11-13T13:43:00.387Z,96.67
2023-11-13T13:45:30.358Z,96.20
2023-11-13T13:47:58.624Z,96.41
2023-11-13T13:50:26.731Z,95.96
2023-11-13T13:52:57.898Z,96.08
2023-11-13T13:55:29.268Z,95.80
2023-11-13T13:58:02.565Z,95.61
2023-11-13T14:00:37.898Z,95.30
2023-11-13T14:03:12.153Z,95.48
2023-11-13T14:05:44.624Z,94.87
2023-11-13T14:08:17.480Z,94.76
2023-11-13T14:10:52.273Z,94.91
2023-11-13T14:13:23.235Z,94.45
2023-11-13T14:16:04.015Z,94.50
2023-11-13T14:18:37.395Z,94.30
2023-11-13T14:21:06.367Z,94.41
2023-11-13T14:23:33.996Z,94.07
2023-11-13T14:26:01.847Z,93.71
2023-11-13T14:28:29.512Z,93.38
2023-11-13T14:30:58.677Z,93.48
2023-11-13T14:33:27.363Z,93.64
2023-11-13T14:35:55.231Z,94.09
2023-11-13T14:38:22.870Z,94.14
2023-11-13T14:40:50.806Z,93.69
2023-11-13T14:43:18.507Z,93.63
2023-11-13T14:45:46.379Z,93.58
2023-11-13T14:48:15.791Z,92.79
2023-11-13T14:50:43.517Z,93.13
2023-11-13T14:53:11.161Z,93.21
2023-11-13T14:55:39.905Z,93.30
2023-11-13T14:58:07.636Z,93.43
2023-11-13T15:00:35.323Z,93.51
2023-11-13T15:03:03.577Z,93.25
2023-11-13T15:05:32.659Z,93.76
2023-11-13T15:08:00.322Z,93.92
2023-11-13T15:10:28.264Z,93.97
2023-11-13T15:12:56.016Z,94.09
2023-11-13T15:15:23.661Z,94.39
2023-11-13T15:17:52.122Z,94.47
2023-11-13T15:20:21.863Z,94.85
2023-11-13T15:23:09.004Z,94.83
2023-11-13T15:25:42.623Z,95.46
2023-11-13T15:28:11.432Z,95.75
2023-11-13T15:30:40.092Z,95.68
2023-11-13T15:33:09.393Z,95.92
2023-11-13T15:35:37.612Z,95.80
2023-11-13T15:38:06.570Z,95.82
2023-11-13T15:40:34.929Z,95.72
2023-11-13T15:43:03.120Z,96.02
2023-11-13T15:45:32.150Z,95.99
2023-11-13T15:48:00.774Z,96.43
2023-11-13T15:50:30.352Z,96.78
2023-11-13T15:52:58.167Z,97.33
2023-11-13T15:55:27.161Z,97.64
2023-11-13T15:57:54.804Z,98.03
2023-11-13T16:00:24.054Z,98.30
2023-11-13T16:02:51.851Z,98.26
2023-11-13T16:05:20.484Z,98.39
2023-11-13T16:07:49.228Z,98.43
2023-11-13T16:10:17.198Z,98.30
2023-11-13T16:12:47.281Z,98.74
2023-11-13T16:15:15.024Z,98.72
2023-11-13T16:17:43.713Z,98.57
2023-11-13T16:20:14.607Z,98.69
2023-11-13T16:22:45.129Z,99.03
2023-11-13T16:25:14.140Z,99.01
2023-11-13T16:27:42.218Z,98.84
2023-11-13T16:30:12.334Z,98.99
2023-11-13T16:32:41.245Z,99.11
2023-11-13T16:35:11.414Z,98.92
2023-11-13T16:37:39.592Z,99.40
2023-11-13T16:40:08.615Z,99.23
2023-11-13T16:42:38.083Z,98.85
2023-11-13T16:45:10.384Z,99.12
2023-11-13T16:47:39.457Z,98.80
2023-11-13T16:50:09.842Z,99.58
2023-11-13T16:52:39.138Z,99.75
2023-11-13T16:55:08.186Z,99.72
2023-11-13T16:57:37.724Z,99.47
2023-11-13T17:00:10.162Z,100.00
2023-11-13T17:02:41.400Z,100.00
2023-11-13T17:05:10.211Z,100.00
2023-11-13T17:07:38.122Z,100.00
2023-11-13T17:10:06.779Z,100.00
2023-11-13T17:12:34.538Z,100.00
2023-11-13T17:15:02.155Z,100.00
2023-11-13T17:17:30.143Z,100.00
2023-11-13T17:20:00.773Z,100.00
2023-11-13T17:22:30.942Z,100.00
2023-11-13T17:24:59.516Z,100.00
2023-11-13T17:27:27.752Z,100.00
2023-11-13T17:29:56.024Z,100.00
2023-11-13T17:32:23.813Z,100.00
2023-11-13T17:34:51.757Z,100.00
2023-11-13T17:37:20.816Z,100.00
2023-11-13T17:39:48.813Z,100.00
2023-11-13T17:42:16.755Z,100.00
2023-11-13T17:44:45.923Z,100.00
2023-11-13T17:47:15.945Z,100.00
2023-11-13T17:49:44.199Z,100.00
2023-11-13T17:52:12.214Z,100.00
2023-11-13T17:54:41.245Z,100.00
2023-11-13T17:57:11.689Z,100.00
2023-11-13T17:59:39.410Z,100.00
2023-11-13T18:02:09.004Z,100.00
2023-11-13T18:04:37.152Z,100.00
2023-11-13T18:07:05.441Z,100.00
2023-11-13T18:09:33.320Z,100.00
2023-11-13T18:12:02.373Z,99.84
2023-11-13T18:14:30.196Z,99.77
2023-11-13T18:16:57.970Z,100.00
2023-11-13T18:19:25.781Z,100.00
2023-11-13T18:21:53.847Z,100.00
2023-11-13T18:24:21.440Z,100.00
2023-11-13T18:26:49.535Z,99.87
2023-11-13T18:29:18.729Z,100.00
2023-11-13T18:31:47.556Z,99.95
2023-11-13T18:34:17.326Z,99.66
2023-11-13T18:36:45.219Z,99.87
2023-11-13T18:39:13.488Z,99.47
2023-11-13T18:41:41.065Z,99.83
2023-11-13T18:44:08.751Z,99.99
2023-11-13T18:46:38.222Z,100.00
2023-11-13T18:49:06.683Z,99.95
2023-11-13T18:51:34.348Z,99.54
2023-11-13T18:54:02.270Z,100.00
2023-11-13T18:56:29.913Z,100.00
2023-11-13T18:58:57.588Z,100.00
2023-11-13T19:01:27.898Z,100.00
2023-11-13T19:03:57.099Z,100.00
2023-11-13T19:06:24.818Z,100.00
2023-11-13T19:08:52.421Z,100.00
2023-11-13T19:11:20.483Z,100.00
2023-11-13T19:13:49.852Z,100.00
2023-11-13T19:16:17.744Z,100.00
2023-11-13T19:18:46.139Z,100.00
2023-11-13T19:21:15.282Z,100.00
2023-11-13T19:23:43.028Z,100.00
2023-11-13T19:26:11.178Z,100.00
2023-11-13T19:28:38.908Z,100.00
2023-11-13T19:31:07.004Z,100.00
2023-11-13T19:33:34.739Z,100.00
2023-11-13T19:36:02.706Z,100.00
2023-11-13T19:38:31.707Z,100.00
2023-11-13T19:40:59.537Z,100.00
2023-11-13T19:43:27.207Z,100.00
2023-11-13T19:45:54.899Z,100.00
2023-11-13T19:48:24.346Z,100.00
2023-11-13T19:50:54.040Z,100.00
2023-11-13T19:53:21.737Z,100.00
2023-11-13T19:55:50.854Z,100.00
2023-11-13T19:58:18.525Z,100.00
2023-11-13T20:00:47.972Z,100.00
2023-11-13T20:03:16.774Z,100.00
2023-11-13T20:05:44.683Z,100.00
2023-11-13T20:08:12.316Z,100.00
2023-11-13T20:10:40.570Z,100.00
2023-11-13T20:13:10.054Z,100.00
2023-11-13T20:15:38.025Z,100.00
2023-11-13T20:18:07.672Z,100.00
2023-11-13T20:20:36.472Z,100.00
2023-11-13T20:23:04.239Z,100.00
2023-11-13T20:25:34.477Z,99.67
2023-11-13T20:28:02.560Z,98.47
2023-11-13T20:30:31.488Z,97.91
2023-11-13T20:32:59.186Z,97.71
2023-11-13T20:35:28.141Z,95.80
2023-11-13T20:37:55.803Z,95.50
2023-11-13T20:40:24.061Z,94.51
2023-11-13T20:42:52.553Z,91.80
2023-11-13T20:45:20.463Z,83.63
2023-11-13T20:47:49.630Z,80.06
2023-11-13T20:50:19.262Z,81.92
2023-11-13T20:52:47.150Z,81.33
2023-11-13T20:55:15.054Z,81.82
2023-11-13T20:57:42.689Z,80.14
2023-11-13T21:00:12.748Z,78.44
2023-11-13T21:02:40.563Z,78.53
2023-11-13T21:05:10.125Z,79.49
2023-11-13T21:07:37.948Z,79.72
2023-11-13T21:10:09.310Z,79.06
2023-11-13T21:12:37.107Z,78.76
2023-11-13T21:15:05.641Z,79.60
2023-11-13T21:17:33.794Z,80.39
2023-11-13T21:20:04.188Z,80.75
2023-11-13T21:22:33.532Z,81.70
2023-11-13T21:25:01.418Z,81.48
2023-11-13T21:27:29.096Z,82.04
2023-11-13T21:29:56.730Z,83.06
2023-11-13T21:32:24.551Z,83.14
2023-11-13T21:34:53.119Z,82.58
2023-11-13T21:37:23.254Z,82.92
2023-11-13T21:39:52.277Z,82.20
2023-11-13T21:42:20.530Z,81.67
2023-11-13T21:44:48.179Z,82.08
2023-11-13T21:47:15.983Z,82.52
2023-11-13T21:49:43.672Z,81.75
2023-11-13T21:52:11.400Z,81.28
2023-11-13T21:54:39.071Z,80.70
2023-11-13T21:57:08.223Z,80.19
2023-11-13T21:59:35.923Z,81.93
2023-11-13T22:02:03.749Z,83.24
2023-11-13T22:04:31.557Z,81.67
2023-11-13T22:06:59.265Z,80.35
2023-11-13T22:09:26.900Z,80.61
2023-11-13T22:11:54.616Z,79.20
2023-11-13T22:14:23.671Z,79.09
2023-11-13T22:16:51.457Z,79.97
2023-11-13T22:19:20.492Z,80.30
2023-11-13T22:21:48.165Z,79.94
2023-11-13T22:24:16.957Z,79.37
2023-11-13T22:26:44.599Z,79.68
2023-11-13T22:29:12.230Z,80.04
2023-11-13T22:31:41.296Z,80.73
2023-11-13T22:34:09.873Z,80.50
2023-11-13T22:36:38.419Z,80.27
2023-11-13T22:39:06.128Z,80.15
2023-11-13T22:41:33.768Z,79.55
2023-11-13T22:44:01.661Z,80.06
2023-11-13T22:46:29.396Z,80.64
2023-11-13T22:48:59.160Z,79.96
2023-11-13T22:51:26.869Z,79.80
2023-11-13T22:53:54.500Z,80.19
2023-11-13T22:56:22.626Z,79.85
2023-11-13T22:58:52.981Z,80.05
2023-11-13T23:01:21.231Z,80.41
2023-11-13T23:03:49.810Z,80.59
2023-11-13T23:06:19.124Z,81.13
2023-11-13T23:08:47.006Z,80.60
2023-11-13T23:11:15.439Z,80.61
2023-11-13T23:13:43.547Z,80.93
2023-11-13T23:16:11.986Z,81.38
2023-11-13T23:18:39.615Z,81.24
2023-11-13T23:21:07.885Z,81.12
2023-11-13T23:23:36.887Z,82.20
2023-11-13T23:26:05.732Z,82.32
2023-11-13T23:28:33.391Z,81.96
2023-11-13T23:31:01.086Z,80.99
2023-11-13T23:33:28.789Z,81.44
2023-11-13T23:35:56.629Z,81.65
2023-11-13T23:38:25.259Z,81.13
2023-11-13T23:40:54.293Z,80.41
2023-11-13T23:43:21.948Z,79.99
2023-11-13T23:45:49.704Z,79.59
2023-11-13T23:48:17.416Z,79.62
2023-11-13T23:50:45.146Z,79.16
2023-11-13T23:53:13.395Z,79.26
2023-11-13T23:55:41.694Z,78.77
2023-11-13T23:58:11.132Z,79.15
